sensor_id;sensor_type;location;lat;lon;timestamp;P1;durP1;ratioP1;P2;durP2;ratioP2
68108;SDS011;54893;49.864;19.084;2023-12-20T00:03:11;6.30;;;3.10;;
68108;SDS011;54893;49.864;19.084;2023-12-20T00:08:11;6.90;;;3.40;;
68108;SDS011;54893;49.864;19.084;2023-12-20T00:13:12;7.13;;;2.70;;
68108;SDS011;54893;49.864;19.084;2023-12-20T00:18:12;7.72;;;2.97;;
68108;SDS011;54893;49.864;19.084;2023-12-20T00:23:12;8.87;;;3.87;;
68108;SDS011;54893;49.864;19.084;2023-12-20T00:28:13;8.27;;;3.73;;
68108;SDS011;54893;49.864;19.084;2023-12-20T00:33:13;7.77;;;3.20;;
68108;SDS011;54893;49.864;19.084;2023-12-20T00:38:14;7.53;;;3.20;;
68108;SDS011;54893;49.864;19.084;2023-12-20T00:43:14;10.48;;;3.53;;
68108;SDS011;54893;49.864;19.084;2023-12-20T00:48:15;8.77;;;3.50;;
68108;SDS011;54893;49.864;19.084;2023-12-20T00:53:15;7.33;;;2.93;;
68108;SDS011;54893;49.864;19.084;2023-12-20T00:58:15;7.37;;;2.70;;
68108;SDS011;54893;49.864;19.084;2023-12-20T01:03:16;6.20;;;2.97;;
68108;SDS011;54893;49.864;19.084;2023-12-20T01:08:16;8.33;;;3.37;;
68108;SDS011;54893;49.864;19.084;2023-12-20T01:13:17;7.27;;;3.43;;
68108;SDS011;54893;49.864;19.084;2023-12-20T01:18:17;8.27;;;3.53;;
68108;SDS011;54893;49.864;19.084;2023-12-20T01:23:17;7.30;;;3.60;;
68108;SDS011;54893;49.864;19.084;2023-12-20T01:28:18;7.83;;;3.10;;
68108;SDS011;54893;49.864;19.084;2023-12-20T01:33:18;6.23;;;2.90;;
68108;SDS011;54893;49.864;19.084;2023-12-20T01:38:18;7.13;;;3.13;;
68108;SDS011;54893;49.864;19.084;2023-12-20T01:43:20;8.02;;;2.80;;
68108;SDS011;54893;49.864;19.084;2023-12-20T01:48:20;6.47;;;3.13;;
68108;SDS011;54893;49.864;19.084;2023-12-20T01:53:21;6.65;;;2.72;;
68108;SDS011;54893;49.864;19.084;2023-12-20T01:58:24;7.83;;;3.00;;
68108;SDS011;54893;49.864;19.084;2023-12-20T02:03:25;7.55;;;3.15;;
68108;SDS011;54893;49.864;19.084;2023-12-20T02:08:26;7.67;;;3.20;;
68108;SDS011;54893;49.864;19.084;2023-12-20T02:13:26;7.67;;;2.70;;
68108;SDS011;54893;49.864;19.084;2023-12-20T02:18:27;6.73;;;2.90;;
68108;SDS011;54893;49.864;19.084;2023-12-20T02:23:27;6.60;;;3.13;;
68108;SDS011;54893;49.864;19.084;2023-12-20T02:28:28;7.50;;;3.27;;
68108;SDS011;54893;49.864;19.084;2023-12-20T02:33:29;6.55;;;2.90;;
68108;SDS011;54893;49.864;19.084;2023-12-20T02:38:29;8.10;;;3.83;;
68108;SDS011;54893;49.864;19.084;2023-12-20T02:43:29;7.73;;;3.40;;
68108;SDS011;54893;49.864;19.084;2023-12-20T02:48:30;8.48;;;3.42;;
68108;SDS011;54893;49.864;19.084;2023-12-20T02:53:30;6.93;;;3.10;;
68108;SDS011;54893;49.864;19.084;2023-12-20T02:58:30;6.57;;;3.20;;
68108;SDS011;54893;49.864;19.084;2023-12-20T03:03:31;6.67;;;3.10;;
68108;SDS011;54893;49.864;19.084;2023-12-20T03:08:32;7.57;;;3.20;;
68108;SDS011;54893;49.864;19.084;2023-12-20T03:13:32;8.30;;;3.50;;
68108;SDS011;54893;49.864;19.084;2023-12-20T03:18:32;8.53;;;3.67;;
68108;SDS011;54893;49.864;19.084;2023-12-20T03:23:33;10.67;;;4.00;;
68108;SDS011;54893;49.864;19.084;2023-12-20T03:28:33;12.30;;;4.60;;
68108;SDS011;54893;49.864;19.084;2023-12-20T03:33:34;15.63;;;5.73;;
68108;SDS011;54893;49.864;19.084;2023-12-20T03:38:34;14.27;;;4.43;;
68108;SDS011;54893;49.864;19.084;2023-12-20T03:43:35;7.43;;;3.37;;
68108;SDS011;54893;49.864;19.084;2023-12-20T03:48:35;9.57;;;3.80;;
68108;SDS011;54893;49.864;19.084;2023-12-20T03:53:35;8.20;;;2.80;;
68108;SDS011;54893;49.864;19.084;2023-12-20T03:58:36;8.50;;;3.33;;
68108;SDS011;54893;49.864;19.084;2023-12-20T04:03:36;8.40;;;3.83;;
68108;SDS011;54893;49.864;19.084;2023-12-20T04:08:36;9.87;;;3.80;;
68108;SDS011;54893;49.864;19.084;2023-12-20T04:13:37;7.93;;;3.80;;
68108;SDS011;54893;49.864;19.084;2023-12-20T04:18:38;7.30;;;3.23;;
68108;SDS011;54893;49.864;19.084;2023-12-20T04:23:39;7.57;;;3.30;;
68108;SDS011;54893;49.864;19.084;2023-12-20T04:28:39;9.50;;;3.97;;
68108;SDS011;54893;49.864;19.084;2023-12-20T04:33:40;10.80;;;5.05;;
68108;SDS011;54893;49.864;19.084;2023-12-20T04:38:40;13.10;;;6.10;;
68108;SDS011;54893;49.864;19.084;2023-12-20T04:43:40;14.80;;;6.03;;
68108;SDS011;54893;49.864;19.084;2023-12-20T04:48:41;12.50;;;5.75;;
68108;SDS011;54893;49.864;19.084;2023-12-20T04:53:41;15.77;;;6.60;;
68108;SDS011;54893;49.864;19.084;2023-12-20T04:58:42;13.33;;;6.37;;
68108;SDS011;54893;49.864;19.084;2023-12-20T05:03:42;14.37;;;5.60;;
68108;SDS011;54893;49.864;19.084;2023-12-20T05:08:43;17.30;;;7.00;;
68108;SDS011;54893;49.864;19.084;2023-12-20T05:13:43;17.20;;;6.73;;
68108;SDS011;54893;49.864;19.084;2023-12-20T05:18:45;17.33;;;7.50;;
68108;SDS011;54893;49.864;19.084;2023-12-20T05:23:45;16.42;;;7.68;;
68108;SDS011;54893;49.864;19.084;2023-12-20T05:28:46;20.93;;;8.07;;
68108;SDS011;54893;49.864;19.084;2023-12-20T05:33:46;19.37;;;8.73;;
68108;SDS011;54893;49.864;19.084;2023-12-20T05:38:47;22.73;;;8.40;;
68108;SDS011;54893;49.864;19.084;2023-12-20T05:43:47;23.63;;;9.90;;
68108;SDS011;54893;49.864;19.084;2023-12-20T05:48:47;21.57;;;9.77;;
68108;SDS011;54893;49.864;19.084;2023-12-20T05:53:48;26.15;;;10.45;;
68108;SDS011;54893;49.864;19.084;2023-12-20T05:58:49;23.27;;;10.45;;
68108;SDS011;54893;49.864;19.084;2023-12-20T06:03:50;25.95;;;9.43;;
68108;SDS011;54893;49.864;19.084;2023-12-20T06:08:51;31.07;;;11.03;;
68108;SDS011;54893;49.864;19.084;2023-12-20T06:13:51;26.17;;;11.00;;
68108;SDS011;54893;49.864;19.084;2023-12-20T06:18:53;20.17;;;8.98;;
68108;SDS011;54893;49.864;19.084;2023-12-20T06:23:53;21.80;;;9.40;;
68108;SDS011;54893;49.864;19.084;2023-12-20T06:28:53;18.63;;;8.38;;
68108;SDS011;54893;49.864;19.084;2023-12-20T06:33:54;24.90;;;10.73;;
68108;SDS011;54893;49.864;19.084;2023-12-20T06:38:57;23.77;;;10.90;;
68108;SDS011;54893;49.864;19.084;2023-12-20T06:43:58;22.50;;;10.10;;
68108;SDS011;54893;49.864;19.084;2023-12-20T06:48:58;23.00;;;9.17;;
68108;SDS011;54893;49.864;19.084;2023-12-20T06:53:58;28.27;;;11.53;;
68108;SDS011;54893;49.864;19.084;2023-12-20T06:59:00;25.85;;;11.93;;
68108;SDS011;54893;49.864;19.084;2023-12-20T07:04:00;24.13;;;11.47;;
68108;SDS011;54893;49.864;19.084;2023-12-20T07:09:00;26.83;;;12.23;;
68108;SDS011;54893;49.864;19.084;2023-12-20T07:14:01;28.63;;;14.63;;
68108;SDS011;54893;49.864;19.084;2023-12-20T07:19:01;30.83;;;14.47;;
68108;SDS011;54893;49.864;19.084;2023-12-20T07:24:01;27.47;;;12.03;;
68108;SDS011;54893;49.864;19.084;2023-12-20T07:29:02;26.10;;;12.53;;
68108;SDS011;54893;49.864;19.084;2023-12-20T07:34:04;28.75;;;12.23;;
68108;SDS011;54893;49.864;19.084;2023-12-20T07:39:05;28.40;;;12.50;;
68108;SDS011;54893;49.864;19.084;2023-12-20T07:44:06;28.33;;;11.43;;
68108;SDS011;54893;49.864;19.084;2023-12-20T07:49:06;24.67;;;11.88;;
68108;SDS011;54893;49.864;19.084;2023-12-20T07:54:08;23.55;;;11.38;;
68108;SDS011;54893;49.864;19.084;2023-12-20T07:59:08;23.90;;;10.70;;
68108;SDS011;54893;49.864;19.084;2023-12-20T08:04:09;23.07;;;9.50;;
68108;SDS011;54893;49.864;19.084;2023-12-20T08:09:10;21.67;;;10.30;;
68108;SDS011;54893;49.864;19.084;2023-12-20T08:14:10;19.50;;;8.20;;
68108;SDS011;54893;49.864;19.084;2023-12-20T08:19:10;17.30;;;9.17;;
68108;SDS011;54893;49.864;19.084;2023-12-20T08:24:11;15.67;;;7.63;;
68108;SDS011;54893;49.864;19.084;2023-12-20T08:29:14;12.80;;;6.33;;
68108;SDS011;54893;49.864;19.084;2023-12-20T08:34:15;14.10;;;6.35;;
68108;SDS011;54893;49.864;19.084;2023-12-20T08:39:16;14.95;;;6.25;;
68108;SDS011;54893;49.864;19.084;2023-12-20T08:44:17;11.10;;;4.65;;
68108;SDS011;54893;49.864;19.084;2023-12-20T08:49:17;11.57;;;5.70;;
68108;SDS011;54893;49.864;19.084;2023-12-20T08:54:17;11.70;;;6.10;;
68108;SDS011;54893;49.864;19.084;2023-12-20T08:59:19;10.17;;;4.53;;
68108;SDS011;54893;49.864;19.084;2023-12-20T09:04:20;11.67;;;5.17;;
68108;SDS011;54893;49.864;19.084;2023-12-20T09:09:20;12.20;;;6.70;;
68108;SDS011;54893;49.864;19.084;2023-12-20T09:14:21;10.23;;;4.97;;
68108;SDS011;54893;49.864;19.084;2023-12-20T09:19:21;11.97;;;5.40;;
68108;SDS011;54893;49.864;19.084;2023-12-20T09:24:22;9.47;;;4.10;;
68108;SDS011;54893;49.864;19.084;2023-12-20T09:29:22;12.07;;;5.13;;
68108;SDS011;54893;49.864;19.084;2023-12-20T09:34:23;10.40;;;3.93;;
68108;SDS011;54893;49.864;19.084;2023-12-20T09:39:25;11.52;;;4.45;;
68108;SDS011;54893;49.864;19.084;2023-12-20T09:44:26;11.70;;;5.17;;
68108;SDS011;54893;49.864;19.084;2023-12-20T09:49:27;11.77;;;5.20;;
68108;SDS011;54893;49.864;19.084;2023-12-20T09:54:28;9.80;;;3.97;;
68108;SDS011;54893;49.864;19.084;2023-12-20T09:59:29;11.23;;;4.95;;
68108;SDS011;54893;49.864;19.084;2023-12-20T10:04:29;12.00;;;4.73;;
68108;SDS011;54893;49.864;19.084;2023-12-20T10:09:32;10.88;;;5.30;;
68108;SDS011;54893;49.864;19.084;2023-12-20T10:14:32;10.93;;;5.00;;
68108;SDS011;54893;49.864;19.084;2023-12-20T10:19:33;13.00;;;5.57;;
68108;SDS011;54893;49.864;19.084;2023-12-20T10:24:33;11.13;;;5.30;;
68108;SDS011;54893;49.864;19.084;2023-12-20T10:29:34;13.30;;;5.53;;
68108;SDS011;54893;49.864;19.084;2023-12-20T10:34:35;12.27;;;5.20;;
68108;SDS011;54893;49.864;19.084;2023-12-20T10:39:36;12.53;;;6.67;;
68108;SDS011;54893;49.864;19.084;2023-12-20T10:44:36;11.50;;;4.77;;
68108;SDS011;54893;49.864;19.084;2023-12-20T10:49:37;16.33;;;6.67;;
68108;SDS011;54893;49.864;19.084;2023-12-20T10:54:38;16.57;;;6.87;;
68108;SDS011;54893;49.864;19.084;2023-12-20T10:59:39;14.43;;;5.97;;
68108;SDS011;54893;49.864;19.084;2023-12-20T11:09:49;13.70;;;5.97;;
68108;SDS011;54893;49.864;19.084;2023-12-20T11:15:13;10.32;;;5.30;;
68108;SDS011;54893;49.864;19.084;2023-12-20T11:20:15;11.13;;;5.57;;
68108;SDS011;54893;49.864;19.084;2023-12-20T11:25:15;13.03;;;5.70;;
68108;SDS011;54893;49.864;19.084;2023-12-20T11:30:17;11.88;;;5.30;;
68108;SDS011;54893;49.864;19.084;2023-12-20T11:35:18;10.90;;;5.60;;
68108;SDS011;54893;49.864;19.084;2023-12-20T11:40:23;11.13;;;5.32;;
68108;SDS011;54893;49.864;19.084;2023-12-20T11:45:25;11.00;;;4.43;;
68108;SDS011;54893;49.864;19.084;2023-12-20T11:50:27;11.23;;;5.53;;
68108;SDS011;54893;49.864;19.084;2023-12-20T11:55:29;10.02;;;4.35;;
68108;SDS011;54893;49.864;19.084;2023-12-20T12:00:30;10.77;;;5.57;;
68108;SDS011;54893;49.864;19.084;2023-12-20T12:05:30;13.10;;;5.77;;
68108;SDS011;54893;49.864;19.084;2023-12-20T12:10:31;11.77;;;6.50;;
68108;SDS011;54893;49.864;19.084;2023-12-20T12:15:31;11.77;;;5.40;;
68108;SDS011;54893;49.864;19.084;2023-12-20T12:20:32;13.47;;;5.67;;
68108;SDS011;54893;49.864;19.084;2023-12-20T12:25:34;11.23;;;4.97;;
68108;SDS011;54893;49.864;19.084;2023-12-20T12:30:35;14.13;;;5.40;;
68108;SDS011;54893;49.864;19.084;2023-12-20T12:35:36;13.07;;;5.67;;
68108;SDS011;54893;49.864;19.084;2023-12-20T12:40:36;13.63;;;5.43;;
68108;SDS011;54893;49.864;19.084;2023-12-20T12:45:37;11.07;;;4.50;;
68108;SDS011;54893;49.864;19.084;2023-12-20T12:50:37;12.43;;;7.03;;
68108;SDS011;54893;49.864;19.084;2023-12-20T12:55:37;9.30;;;3.77;;
68108;SDS011;54893;49.864;19.084;2023-12-20T13:00:38;12.63;;;6.53;;
68108;SDS011;54893;49.864;19.084;2023-12-20T13:05:38;14.97;;;6.50;;
68108;SDS011;54893;49.864;19.084;2023-12-20T13:10:39;18.40;;;7.47;;
68108;SDS011;54893;49.864;19.084;2023-12-20T13:15:39;18.47;;;8.33;;
68108;SDS011;54893;49.864;19.084;2023-12-20T13:20:40;20.67;;;8.63;;
68108;SDS011;54893;49.864;19.084;2023-12-20T13:25:44;22.07;;;9.20;;
68108;SDS011;54893;49.864;19.084;2023-12-20T13:30:47;21.33;;;10.17;;
68108;SDS011;54893;49.864;19.084;2023-12-20T13:35:47;15.67;;;7.70;;
68108;SDS011;54893;49.864;19.084;2023-12-20T13:40:48;16.93;;;7.27;;
68108;SDS011;54893;49.864;19.084;2023-12-20T13:45:48;21.60;;;9.87;;
68108;SDS011;54893;49.864;19.084;2023-12-20T13:50:48;16.15;;;8.18;;
68108;SDS011;54893;49.864;19.084;2023-12-20T13:55:49;16.97;;;9.30;;
68108;SDS011;54893;49.864;19.084;2023-12-20T14:00:49;20.80;;;9.97;;
68108;SDS011;54893;49.864;19.084;2023-12-20T14:05:50;18.60;;;10.17;;
68108;SDS011;54893;49.864;19.084;2023-12-20T14:10:50;15.40;;;7.10;;
68108;SDS011;54893;49.864;19.084;2023-12-20T14:15:50;15.70;;;7.00;;
68108;SDS011;54893;49.864;19.084;2023-12-20T14:20:51;15.93;;;9.53;;
68108;SDS011;54893;49.864;19.084;2023-12-20T14:25:51;15.53;;;8.70;;
68108;SDS011;54893;49.864;19.084;2023-12-20T14:30:51;14.73;;;6.50;;
68108;SDS011;54893;49.864;19.084;2023-12-20T14:35:52;13.43;;;6.50;;
68108;SDS011;54893;49.864;19.084;2023-12-20T14:40:53;13.60;;;5.30;;
68108;SDS011;54893;49.864;19.084;2023-12-20T14:45:53;16.58;;;8.63;;
68108;SDS011;54893;49.864;19.084;2023-12-20T14:50:54;14.30;;;7.10;;
68108;SDS011;54893;49.864;19.084;2023-12-20T14:55:54;13.57;;;7.00;;
68108;SDS011;54893;49.864;19.084;2023-12-20T15:00:55;15.23;;;6.80;;
68108;SDS011;54893;49.864;19.084;2023-12-20T15:05:56;13.50;;;5.97;;
68108;SDS011;54893;49.864;19.084;2023-12-20T15:10:58;15.07;;;7.18;;
68108;SDS011;54893;49.864;19.084;2023-12-20T15:15:59;14.43;;;7.00;;
68108;SDS011;54893;49.864;19.084;2023-12-20T15:20:59;12.40;;;5.67;;
68108;SDS011;54893;49.864;19.084;2023-12-20T15:26:00;14.70;;;6.63;;
68108;SDS011;54893;49.864;19.084;2023-12-20T15:31:00;17.47;;;7.97;;
68108;SDS011;54893;49.864;19.084;2023-12-20T15:36:00;17.93;;;8.60;;
68108;SDS011;54893;49.864;19.084;2023-12-20T15:41:01;14.27;;;6.53;;
68108;SDS011;54893;49.864;19.084;2023-12-20T15:46:01;20.03;;;8.00;;
68108;SDS011;54893;49.864;19.084;2023-12-20T15:51:06;18.30;;;8.88;;
68108;SDS011;54893;49.864;19.084;2023-12-20T15:56:07;15.82;;;7.30;;
68108;SDS011;54893;49.864;19.084;2023-12-20T16:01:07;14.50;;;5.88;;
68108;SDS011;54893;49.864;19.084;2023-12-20T16:06:09;15.60;;;7.47;;
68108;SDS011;54893;49.864;19.084;2023-12-20T16:11:10;15.63;;;6.85;;
68108;SDS011;54893;49.864;19.084;2023-12-20T16:16:10;15.50;;;7.57;;
68108;SDS011;54893;49.864;19.084;2023-12-20T16:21:11;15.20;;;7.07;;
68108;SDS011;54893;49.864;19.084;2023-12-20T16:26:12;16.70;;;5.40;;
68108;SDS011;54893;49.864;19.084;2023-12-20T16:31:13;15.50;;;7.95;;
68108;SDS011;54893;49.864;19.084;2023-12-20T16:36:13;13.33;;;6.27;;
68108;SDS011;54893;49.864;19.084;2023-12-20T16:41:14;16.23;;;6.87;;
68108;SDS011;54893;49.864;19.084;2023-12-20T16:46:14;14.90;;;6.43;;
68108;SDS011;54893;49.864;19.084;2023-12-20T16:51:14;16.63;;;7.17;;
68108;SDS011;54893;49.864;19.084;2023-12-20T16:56:15;13.37;;;5.87;;
68108;SDS011;54893;49.864;19.084;2023-12-20T17:01:15;14.40;;;6.45;;
68108;SDS011;54893;49.864;19.084;2023-12-20T17:06:16;13.23;;;6.33;;
68108;SDS011;54893;49.864;19.084;2023-12-20T17:11:16;12.90;;;5.43;;
68108;SDS011;54893;49.864;19.084;2023-12-20T17:16:17;11.80;;;6.00;;
68108;SDS011;54893;49.864;19.084;2023-12-20T17:21:17;13.10;;;6.20;;
68108;SDS011;54893;49.864;19.084;2023-12-20T17:26:18;9.80;;;4.97;;
68108;SDS011;54893;49.864;19.084;2023-12-20T17:31:18;12.63;;;6.10;;
68108;SDS011;54893;49.864;19.084;2023-12-20T17:36:19;13.97;;;6.17;;
68108;SDS011;54893;49.864;19.084;2023-12-20T17:41:19;14.97;;;7.70;;
68108;SDS011;54893;49.864;19.084;2023-12-20T17:46:19;13.70;;;6.50;;
68108;SDS011;54893;49.864;19.084;2023-12-20T17:51:20;12.30;;;4.63;;
68108;SDS011;54893;49.864;19.084;2023-12-20T17:56:21;14.77;;;5.97;;
68108;SDS011;54893;49.864;19.084;2023-12-20T18:01:21;13.93;;;5.40;;
68108;SDS011;54893;49.864;19.084;2023-12-20T18:06:22;12.13;;;5.83;;
68108;SDS011;54893;49.864;19.084;2023-12-20T18:11:23;11.18;;;4.75;;
68108;SDS011;54893;49.864;19.084;2023-12-20T18:16:24;12.40;;;5.13;;
68108;SDS011;54893;49.864;19.084;2023-12-20T18:21:24;10.43;;;4.23;;
68108;SDS011;54893;49.864;19.084;2023-12-20T18:26:24;9.10;;;3.60;;
68108;SDS011;54893;49.864;19.084;2023-12-20T18:31:25;9.90;;;4.43;;
68108;SDS011;54893;49.864;19.084;2023-12-20T18:36:26;10.47;;;3.80;;
68108;SDS011;54893;49.864;19.084;2023-12-20T18:41:27;9.10;;;4.33;;
68108;SDS011;54893;49.864;19.084;2023-12-20T18:46:27;9.23;;;4.13;;
68108;SDS011;54893;49.864;19.084;2023-12-20T18:51:27;10.43;;;4.00;;
68108;SDS011;54893;49.864;19.084;2023-12-20T18:56:28;7.23;;;2.97;;
68108;SDS011;54893;49.864;19.084;2023-12-20T19:01:28;9.43;;;4.10;;
68108;SDS011;54893;49.864;19.084;2023-12-20T19:06:28;9.00;;;3.47;;
68108;SDS011;54893;49.864;19.084;2023-12-20T19:11:29;11.83;;;4.43;;
68108;SDS011;54893;49.864;19.084;2023-12-20T19:16:29;11.43;;;4.27;;
68108;SDS011;54893;49.864;19.084;2023-12-20T19:21:30;9.35;;;3.90;;
68108;SDS011;54893;49.864;19.084;2023-12-20T19:26:31;5.70;;;3.03;;
68108;SDS011;54893;49.864;19.084;2023-12-20T19:31:31;7.50;;;3.00;;
68108;SDS011;54893;49.864;19.084;2023-12-20T19:36:31;12.20;;;4.20;;
68108;SDS011;54893;49.864;19.084;2023-12-20T19:41:32;8.20;;;3.55;;
68108;SDS011;54893;49.864;19.084;2023-12-20T19:46:33;8.80;;;3.43;;
68108;SDS011;54893;49.864;19.084;2023-12-20T19:51:33;9.10;;;3.67;;
68108;SDS011;54893;49.864;19.084;2023-12-20T19:56:33;7.77;;;2.90;;
68108;SDS011;54893;49.864;19.084;2023-12-20T20:01:34;9.00;;;3.30;;
68108;SDS011;54893;49.864;19.084;2023-12-20T20:06:39;10.13;;;3.90;;
68108;SDS011;54893;49.864;19.084;2023-12-20T20:11:39;9.73;;;3.37;;
68108;SDS011;54893;49.864;19.084;2023-12-20T20:16:41;9.65;;;3.67;;
68108;SDS011;54893;49.864;19.084;2023-12-20T20:21:43;9.30;;;3.60;;
68108;SDS011;54893;49.864;19.084;2023-12-20T20:26:43;9.17;;;3.20;;
68108;SDS011;54893;49.864;19.084;2023-12-20T20:31:44;7.90;;;3.37;;
68108;SDS011;54893;49.864;19.084;2023-12-20T20:36:44;9.43;;;3.27;;
68108;SDS011;54893;49.864;19.084;2023-12-20T20:41:44;12.97;;;4.07;;
68108;SDS011;54893;49.864;19.084;2023-12-20T20:46:45;8.20;;;3.27;;
68108;SDS011;54893;49.864;19.084;2023-12-20T20:51:46;7.43;;;2.70;;
68108;SDS011;54893;49.864;19.084;2023-12-20T20:56:46;8.53;;;2.73;;
68108;SDS011;54893;49.864;19.084;2023-12-20T21:01:46;7.07;;;2.30;;
68108;SDS011;54893;49.864;19.084;2023-12-20T21:06:47;9.43;;;3.30;;
68108;SDS011;54893;49.864;19.084;2023-12-20T21:11:48;9.63;;;3.40;;
68108;SDS011;54893;49.864;19.084;2023-12-20T21:16:48;7.50;;;2.80;;
68108;SDS011;54893;49.864;19.084;2023-12-20T21:21:49;10.63;;;3.17;;
68108;SDS011;54893;49.864;19.084;2023-12-20T21:26:49;9.13;;;2.83;;
68108;SDS011;54893;49.864;19.084;2023-12-20T21:31:49;6.57;;;2.57;;
68108;SDS011;54893;49.864;19.084;2023-12-20T21:36:50;7.07;;;2.80;;
68108;SDS011;54893;49.864;19.084;2023-12-20T21:41:51;7.07;;;2.60;;
68108;SDS011;54893;49.864;19.084;2023-12-20T21:46:51;6.43;;;2.80;;
68108;SDS011;54893;49.864;19.084;2023-12-20T21:51:51;4.80;;;1.73;;
68108;SDS011;54893;49.864;19.084;2023-12-20T21:56:52;6.90;;;3.03;;
68108;SDS011;54893;49.864;19.084;2023-12-20T22:01:53;7.90;;;3.08;;
68108;SDS011;54893;49.864;19.084;2023-12-20T22:06:54;7.90;;;2.47;;
68108;SDS011;54893;49.864;19.084;2023-12-20T22:11:54;7.90;;;3.23;;
68108;SDS011;54893;49.864;19.084;2023-12-20T22:16:56;7.60;;;2.53;;
68108;SDS011;54893;49.864;19.084;2023-12-20T22:21:57;8.43;;;2.78;;
68108;SDS011;54893;49.864;19.084;2023-12-20T22:26:58;8.43;;;3.40;;
68108;SDS011;54893;49.864;19.084;2023-12-20T22:32:00;8.77;;;3.37;;
68108;SDS011;54893;49.864;19.084;2023-12-20T22:37:01;8.00;;;3.00;;
68108;SDS011;54893;49.864;19.084;2023-12-20T22:42:01;8.57;;;3.22;;
68108;SDS011;54893;49.864;19.084;2023-12-20T22:47:03;8.03;;;2.87;;
68108;SDS011;54893;49.864;19.084;2023-12-20T22:52:03;6.82;;;3.20;;
68108;SDS011;54893;49.864;19.084;2023-12-20T22:57:04;8.32;;;3.00;;
68108;SDS011;54893;49.864;19.084;2023-12-20T23:02:04;8.07;;;2.87;;
68108;SDS011;54893;49.864;19.084;2023-12-20T23:07:05;9.17;;;3.07;;
68108;SDS011;54893;49.864;19.084;2023-12-20T23:12:07;6.68;;;3.00;;
68108;SDS011;54893;49.864;19.084;2023-12-20T23:17:08;8.20;;;3.23;;
68108;SDS011;54893;49.864;19.084;2023-12-20T23:22:08;6.80;;;2.80;;
68108;SDS011;54893;49.864;19.084;2023-12-20T23:27:09;8.50;;;2.40;;
68108;SDS011;54893;49.864;19.084;2023-12-20T23:32:09;7.13;;;2.67;;
68108;SDS011;54893;49.864;19.084;2023-12-20T23:37:10;7.00;;;2.50;;
68108;SDS011;54893;49.864;19.084;2023-12-20T23:42:13;6.07;;;2.40;;
68108;SDS011;54893;49.864;19.084;2023-12-20T23:47:17;8.45;;;2.80;;
68108;SDS011;54893;49.864;19.084;2023-12-20T23:52:17;5.25;;;2.30;;
68108;SDS011;54893;49.864;19.084;2023-12-20T23:57:18;4.60;;;1.83;;
